EGPN/DND METAR and TAF weather

Enter ICAO airport designator
Station Type Date Time Source
EGPN METAR 2018/01/22 11:50 UTC NOAA

EGPN 221150Z 28008KT 9999 FEW025 SCT035 06/04 Q1002


Station Type Date Time Source
EGPN Decoded METAR 2018/01/22 11:50 UTC NOAA

Dundee / Riverside, United Kingdom (EGPN) 56-27N 003-01W
Jan 22, 2018 - 06:50 AM EST / 2018.01.22 1150 UTC
Wind: from the W (280 degrees) at 9 MPH (8 KT):0
Visibility: greater than 7 mile(s):0
Sky conditions: partly cloudy
Temperature: 42 F (6 C)
Dew Point: 39 F (4 C)
Relative Humidity: 86%
Pressure (altimeter): 29.59 in. Hg (1002 hPa)
ob: EGPN 221150Z 28008KT 9999 FEW025 SCT035 06/04 Q1002
cycle: 12

Station Type Date Time Source
EGPN TAF UTC NOAA

Error!


Example: see airport list